createdAt,value
2018-07-16T00:00:20.268Z,99082.20
2018-07-16T00:00:51.444Z,99085.38
2018-07-16T00:01:22.661Z,99081.84
2018-07-16T00:01:53.894Z,99082.35
2018-07-16T00:02:25.082Z,99085.99
2018-07-16T00:02:56.270Z,99084.30
2018-07-16T00:03:27.455Z,99082.61
2018-07-16T00:03:58.628Z,99083.11
2018-07-16T00:04:29.796Z,99088.80
2018-07-16T00:05:01.037Z,99079.33
2018-07-16T00:05:32.225Z,99081.16
2018-07-16T00:06:03.407Z,99083.32
2018-07-16T00:06:34.673Z,99088.36
2018-07-16T00:07:05.910Z,99084.36
2018-07-16T00:07:37.093Z,99077.38
2018-07-16T00:08:08.316Z,99087.89
2018-07-16T00:08:39.557Z,99087.39
2018-07-16T00:09:10.802Z,99084.25
2018-07-16T00:09:41.985Z,99082.41
2018-07-16T00:10:13.208Z,99082.27
2018-07-16T00:10:44.396Z,99090.16
2018-07-16T00:11:15.672Z,99094.47
2018-07-16T00:11:46.864Z,99088.52
2018-07-16T00:12:18.049Z,99089.92
2018-07-16T00:12:49.224Z,99084.27
2018-07-16T00:13:20.492Z,99088.33
2018-07-16T00:13:51.676Z,99088.33
2018-07-16T00:14:22.897Z,99086.99
2018-07-16T00:14:54.131Z,99087.97
2018-07-16T00:15:25.320Z,99086.99
2018-07-16T00:15:56.558Z,99090.38
2018-07-16T00:16:27.739Z,99092.42
2018-07-16T00:16:58.923Z,99089.75
2018-07-16T00:17:30.149Z,99093.75
2018-07-16T00:18:01.381Z,99095.85
2018-07-16T00:18:32.604Z,99093.30
2018-07-16T00:19:03.788Z,99091.19
2018-07-16T00:19:34.961Z,99093.23
2018-07-16T00:20:06.132Z,99098.21
2018-07-16T00:20:37.305Z,99089.14
2018-07-16T00:21:08.472Z,99096.67
2018-07-16T00:21:39.654Z,99087.48
2018-07-16T00:22:10.941Z,99093.14
2018-07-16T00:22:42.115Z,99097.79
2018-07-16T00:23:13.310Z,99096.10
2018-07-16T00:23:44.542Z,99095.95
2018-07-16T00:24:15.720Z,99094.47
2018-07-16T00:24:46.952Z,99095.48
2018-07-16T00:25:18.185Z,99094.98
2018-07-16T00:25:49.375Z,99098.00
2018-07-16T00:26:20.552Z,99094.00
2018-07-16T00:26:51.761Z,99096.10
2018-07-16T00:27:22.988Z,99098.27
2018-07-16T00:27:54.172Z,99093.64
2018-07-16T00:28:25.352Z,99095.48
2018-07-16T00:28:56.590Z,99094.22
2018-07-16T00:29:27.822Z,99088.52
2018-07-16T00:29:59.046Z,99091.91
2018-07-16T00:30:30.228Z,99092.95
2018-07-16T00:31:01.400Z,99093.66
2018-07-16T00:31:32.586Z,99092.21
2018-07-16T00:32:03.812Z,99089.14
2018-07-16T00:32:34.989Z,99088.16
2018-07-16T00:33:06.222Z,99086.17
2018-07-16T00:33:37.414Z,99087.50
2018-07-16T00:34:09.589Z,99090.53
2018-07-16T00:34:41.580Z,99090.89
2018-07-16T00:35:12.844Z,99090.38
2018-07-16T00:35:44.035Z,99086.83
2018-07-16T00:36:15.225Z,99090.53
2018-07-16T00:36:46.406Z,99088.98
2018-07-16T00:37:17.670Z,99088.48
2018-07-16T00:37:48.870Z,99091.80
2018-07-16T00:38:20.105Z,99089.14
2018-07-16T00:38:51.309Z,99095.80
2018-07-16T00:39:22.568Z,99093.39
2018-07-16T00:39:53.831Z,99089.19
2018-07-16T00:40:25.061Z,99094.27
2018-07-16T00:40:56.282Z,99090.28
2018-07-16T00:41:27.452Z,99096.11
2018-07-16T00:41:58.697Z,99090.57
2018-07-16T00:42:29.949Z,99085.92
2018-07-16T00:43:01.141Z,99098.63
2018-07-16T00:43:32.369Z,99088.59
2018-07-16T00:44:03.563Z,99091.25
2018-07-16T00:44:34.749Z,99089.92
2018-07-16T00:45:05.965Z,99086.93
2018-07-16T00:45:37.160Z,99099.91
2018-07-16T00:46:08.377Z,99089.23
2018-07-16T00:46:39.821Z,99095.25
2018-07-16T00:47:11.006Z,99091.61
2018-07-16T00:47:42.184Z,99091.97
2018-07-16T00:48:13.395Z,99097.03
2018-07-16T00:48:44.665Z,99094.26
2018-07-16T00:49:15.854Z,99095.80
2018-07-16T00:49:47.079Z,99097.20
2018-07-16T00:50:18.295Z,99091.86
2018-07-16T00:50:49.480Z,99090.53
2018-07-16T00:51:20.659Z,99100.01
2018-07-16T00:51:52.426Z,99097.49
2018-07-16T00:52:23.653Z,99095.80
2018-07-16T00:52:54.913Z,99094.32
2018-07-16T00:53:26.129Z,99096.63
2018-07-16T00:53:58.182Z,99097.61
2018-07-16T00:54:30.585Z,99094.37
2018-07-16T00:55:02.175Z,99091.61
2018-07-16T00:55:33.364Z,99094.93
2018-07-16T00:56:04.557Z,99095.75
2018-07-16T00:56:35.800Z,99094.93
2018-07-16T00:57:06.974Z,99097.59
2018-07-16T00:57:38.196Z,99095.91
2018-07-16T00:58:09.979Z,99097.70
2018-07-16T00:58:41.268Z,99089.70
2018-07-16T00:59:12.452Z,99099.04
2018-07-16T00:59:43.629Z,99095.05
2018-07-16T01:00:14.866Z,99092.11
2018-07-16T01:00:47.952Z,99095.61
2018-07-16T01:02:20.849Z,99092.88
2018-07-16T01:02:52.100Z,99098.83
2018-07-16T01:03:24.147Z,99097.14
2018-07-16T01:03:55.384Z,99097.14
2018-07-16T01:04:29.950Z,99095.81
2018-07-16T01:05:01.186Z,99094.98
2018-07-16T01:05:32.391Z,99096.16
2018-07-16T01:06:03.645Z,98811.23
2018-07-16T01:06:35.629Z,99097.02
2018-07-16T01:07:06.864Z,99098.69
2018-07-16T01:07:39.163Z,99098.92
2018-07-16T01:08:10.340Z,99102.27
2018-07-16T01:08:41.516Z,99103.97
2018-07-16T01:09:12.741Z,99101.55
2018-07-16T01:09:43.944Z,99096.56
2018-07-16T01:10:15.145Z,99106.27
2018-07-16T01:10:46.390Z,99104.94
2018-07-16T01:11:18.208Z,99109.45
2018-07-16T01:11:49.436Z,99111.97
2018-07-16T01:12:20.693Z,99104.27
2018-07-16T01:12:51.875Z,99106.36
2018-07-16T01:13:23.132Z,99107.13
2018-07-16T01:13:54.368Z,99111.38
2018-07-16T01:14:25.578Z,99108.86
2018-07-16T01:14:57.506Z,99103.31
2018-07-16T01:15:29.240Z,99104.91
2018-07-16T01:16:01.037Z,99105.91
2018-07-16T01:16:32.216Z,99105.70
2018-07-16T01:17:03.442Z,99111.15
2018-07-16T01:17:34.653Z,99114.57
2018-07-16T01:18:05.857Z,99104.05
2018-07-16T01:18:37.041Z,99108.27
2018-07-16T01:19:08.329Z,99103.08
2018-07-16T01:19:39.580Z,99107.08
2018-07-16T01:20:10.772Z,99109.24
2018-07-16T01:20:42.040Z,99104.41
2018-07-16T01:21:13.232Z,99107.08
2018-07-16T01:21:44.740Z,99103.08
2018-07-16T01:22:16.018Z,99101.39
2018-07-16T01:22:47.266Z,99104.41
2018-07-16T01:23:18.480Z,99106.58
2018-07-16T01:23:49.729Z,99105.49
2018-07-16T01:24:20.979Z,99101.49
2018-07-16T01:24:52.176Z,99109.48
2018-07-16T01:25:24.507Z,99106.39
2018-07-16T01:25:55.686Z,99109.63
2018-07-16T01:26:26.892Z,99113.16
2018-07-16T01:26:58.165Z,99109.01
2018-07-16T01:27:29.380Z,99105.98
2018-07-16T01:28:00.616Z,99110.34
2018-07-16T01:28:32.809Z,99111.81
2018-07-16T01:29:10.333Z,99109.91
2018-07-16T01:29:42.581Z,99107.93
2018-07-16T01:30:53.961Z,99109.16
2018-07-16T01:31:25.575Z,99115.81
2018-07-16T01:33:17.157Z,99111.44
2018-07-16T01:33:48.454Z,99106.87
2018-07-16T01:34:19.652Z,99110.30
2018-07-16T01:34:50.829Z,99110.58
2018-07-16T01:35:22.037Z,99109.86
2018-07-16T01:35:53.270Z,99107.55
2018-07-16T01:36:24.468Z,99111.55
2018-07-16T01:36:55.696Z,99107.05
2018-07-16T01:37:26.870Z,99106.91
2018-07-16T01:37:58.059Z,99107.91
2018-07-16T01:38:29.286Z,99112.23
2018-07-16T01:39:00.476Z,99112.38
2018-07-16T01:39:32.882Z,99111.55
2018-07-16T01:40:04.069Z,99114.22
2018-07-16T01:40:35.303Z,99109.03
2018-07-16T01:41:06.589Z,99110.84
2018-07-16T01:41:37.761Z,99106.23
2018-07-16T01:42:08.936Z,99108.39
2018-07-16T01:42:40.234Z,99114.44
2018-07-16T01:43:11.492Z,99111.27
2018-07-16T01:43:44.136Z,99114.29
2018-07-16T01:44:15.311Z,99113.67
2018-07-16T01:44:46.520Z,99118.50
2018-07-16T01:45:18.321Z,99116.55
2018-07-16T01:45:49.536Z,99119.58
2018-07-16T01:46:20.737Z,99116.27
2018-07-16T01:46:51.909Z,99114.82
2018-07-16T01:47:23.102Z,99117.81
2018-07-16T01:47:54.308Z,99114.82
2018-07-16T01:48:25.485Z,98985.26
2018-07-16T01:48:56.748Z,99112.91
2018-07-16T01:49:28.204Z,99114.03
2018-07-16T01:49:59.381Z,99111.48
2018-07-16T01:50:31.227Z,99111.27
2018-07-16T01:51:02.453Z,99114.91
2018-07-16T01:51:33.630Z,99113.50
2018-07-16T01:52:04.846Z,99117.64
2018-07-16T01:52:36.073Z,99118.11
2018-07-16T01:53:07.254Z,99113.79
2018-07-16T01:53:38.448Z,99118.55
2018-07-16T01:54:09.668Z,99114.80
2018-07-16T01:54:40.912Z,99114.52
2018-07-16T01:55:12.705Z,99108.97
2018-07-16T01:55:43.924Z,99106.77
2018-07-16T01:56:15.161Z,99108.25
2018-07-16T01:56:46.342Z,99108.03
2018-07-16T01:57:17.572Z,99112.17
2018-07-16T01:57:48.745Z,99112.03
2018-07-16T01:58:19.921Z,99108.53
2018-07-16T01:58:51.101Z,99112.89
2018-07-16T01:59:22.325Z,99108.75
2018-07-16T01:59:53.506Z,99111.41
2018-07-16T02:00:24.729Z,99110.08
2018-07-16T02:00:55.965Z,99111.41
2018-07-16T02:01:27.158Z,99110.08
2018-07-16T02:01:58.391Z,99112.60
2018-07-16T02:02:29.616Z,99109.44
2018-07-16T02:03:00.837Z,99115.48
2018-07-16T02:03:32.012Z,99108.00
2018-07-16T02:04:03.233Z,99113.91
2018-07-16T02:04:34.408Z,99114.59
2018-07-16T02:05:05.595Z,99102.23
2018-07-16T02:05:37.382Z,99112.20
2018-07-16T02:06:09.468Z,99116.96
2018-07-16T02:06:40.646Z,99112.60
2018-07-16T02:07:11.821Z,99114.08
2018-07-16T02:07:43.001Z,99112.89
2018-07-16T02:08:14.192Z,99109.22
2018-07-16T02:08:45.364Z,99111.56
2018-07-16T02:09:17.296Z,99114.69
2018-07-16T02:09:48.681Z,99112.17
2018-07-16T02:10:19.896Z,99116.17
2018-07-16T02:10:51.118Z,99108.31
2018-07-16T02:11:22.384Z,99111.45
2018-07-16T02:11:53.548Z,99116.63
2018-07-16T02:12:24.798Z,99111.67
2018-07-16T02:12:56.033Z,99116.31
2018-07-16T02:13:27.219Z,99113.50
2018-07-16T02:13:59.169Z,99113.00
2018-07-16T02:14:30.356Z,99121.97
2018-07-16T02:15:02.193Z,99119.05
2018-07-16T02:15:33.372Z,99114.11
2018-07-16T02:16:04.553Z,99114.98
2018-07-16T02:16:35.774Z,99111.56
2018-07-16T02:17:06.963Z,99111.06
2018-07-16T02:17:38.198Z,99117.64
2018-07-16T02:18:09.437Z,99113.97
2018-07-16T02:18:40.680Z,99124.63
2018-07-16T02:19:11.860Z,99115.95
2018-07-16T02:19:43.041Z,99122.61
2018-07-16T02:20:14.249Z,99112.39
2018-07-16T02:20:46.239Z,99116.78
2018-07-16T02:21:18.569Z,99115.80
2018-07-16T02:21:49.785Z,99120.52
2018-07-16T02:22:20.996Z,99128.52
2018-07-16T02:22:52.202Z,99127.87
2018-07-16T02:23:23.468Z,99125.92
2018-07-16T02:23:54.684Z,99120.09
2018-07-16T02:24:25.985Z,99123.12
2018-07-16T02:24:57.832Z,99125.53
2018-07-16T02:25:29.018Z,99113.91
2018-07-16T02:26:00.241Z,99118.36
2018-07-16T02:26:31.461Z,99117.89
2018-07-16T02:27:02.648Z,99119.48
2018-07-16T02:27:34.972Z,99122.14
2018-07-16T02:28:06.245Z,99120.81
2018-07-16T02:28:37.433Z,99117.78
2018-07-16T02:29:08.669Z,99123.41
2018-07-16T02:29:39.921Z,99130.31
2018-07-16T02:30:11.331Z,99130.59
2018-07-16T02:30:42.614Z,99125.85
2018-07-16T02:31:13.802Z,99126.49
2018-07-16T02:31:45.075Z,99132.43
2018-07-16T02:32:16.253Z,99124.59
2018-07-16T02:32:47.428Z,99129.05
2018-07-16T02:33:18.605Z,99128.83
2018-07-16T02:33:49.815Z,99125.95
2018-07-16T02:34:21.049Z,99125.95
2018-07-16T02:34:52.308Z,99121.73
2018-07-16T02:35:24.266Z,99127.05
2018-07-16T02:35:55.440Z,99129.00
2018-07-16T02:36:26.627Z,99133.49
2018-07-16T02:36:57.846Z,99126.48
2018-07-16T02:37:29.073Z,99126.98
2018-07-16T02:38:00.326Z,99128.78
2018-07-16T02:38:31.516Z,99127.81
2018-07-16T02:39:02.745Z,99131.80
2018-07-16T02:39:33.933Z,99140.15
2018-07-16T02:40:05.116Z,99134.69
2018-07-16T02:40:36.352Z,99136.23
2018-07-16T02:41:07.537Z,99133.72
2018-07-16T02:41:38.758Z,99129.36
2018-07-16T02:42:10.589Z,99136.98
2018-07-16T02:42:41.781Z,99127.67
2018-07-16T02:43:13.006Z,99143.17
2018-07-16T02:43:44.240Z,99140.52
2018-07-16T02:44:15.489Z,99138.46
2018-07-16T02:44:46.666Z,99135.19
2018-07-16T02:45:17.845Z,99137.20
2018-07-16T02:45:49.020Z,99138.29
2018-07-16T02:46:20.185Z,99135.27
2018-07-16T02:46:51.369Z,99136.59
2018-07-16T02:47:22.552Z,99136.34
2018-07-16T02:47:53.738Z,99135.02
2018-07-16T02:48:25.004Z,99138.00
2018-07-16T02:48:56.180Z,99134.59
2018-07-16T02:49:27.380Z,99132.90
2018-07-16T02:49:58.548Z,99137.03
2018-07-16T02:50:29.782Z,99133.69
2018-07-16T02:51:00.956Z,99126.77
2018-07-16T02:51:32.148Z,99136.02
2018-07-16T02:52:03.316Z,99132.66
2018-07-16T02:52:34.546Z,99128.17
2018-07-16T02:53:05.774Z,99134.10
2018-07-16T02:53:37.052Z,99131.94
2018-07-16T02:54:08.253Z,99132.91
2018-07-16T02:54:39.477Z,99141.65
2018-07-16T02:55:10.710Z,99133.30
2018-07-16T02:55:41.913Z,99134.16
2018-07-16T02:56:13.152Z,99134.99
2018-07-16T02:56:44.458Z,99136.83
2018-07-16T02:57:15.644Z,99137.19
2018-07-16T02:57:46.871Z,99142.98
2018-07-16T02:58:18.101Z,99131.97
2018-07-16T02:58:49.328Z,99132.61
2018-07-16T02:59:20.501Z,99137.52
2018-07-16T02:59:51.681Z,99135.58
2018-07-16T03:00:22.918Z,99133.88
2018-07-16T03:00:54.768Z,99139.57
2018-07-16T03:01:25.989Z,99136.30
2018-07-16T03:01:57.162Z,99135.19
2018-07-16T03:02:28.428Z,99129.86
2018-07-16T03:02:59.587Z,99136.38
2018-07-16T03:03:30.775Z,99142.89
2018-07-16T03:04:01.966Z,99143.76
2018-07-16T03:04:33.154Z,99142.28
2018-07-16T03:05:04.376Z,99146.50
2018-07-16T03:05:35.558Z,99141.75
2018-07-16T03:06:06.792Z,99143.16
2018-07-16T03:06:38.025Z,99141.69
2018-07-16T03:07:09.261Z,99139.02
2018-07-16T03:07:40.443Z,99132.15
2018-07-16T03:08:11.681Z,99147.66
2018-07-16T03:08:42.865Z,99139.66
2018-07-16T03:09:14.040Z,99147.33
2018-07-16T03:09:45.204Z,99144.59
2018-07-16T03:10:16.415Z,99147.61
2018-07-16T03:10:47.629Z,99147.61
2018-07-16T03:11:18.805Z,99145.09
2018-07-16T03:11:49.982Z,99151.97
2018-07-16T03:12:21.205Z,99138.00
2018-07-16T03:12:52.389Z,99147.83
2018-07-16T03:13:23.559Z,99139.56
2018-07-16T03:13:54.742Z,99146.47
2018-07-16T03:14:25.964Z,99142.47
2018-07-16T03:14:57.168Z,99144.49
2018-07-16T03:15:28.383Z,99137.62
2018-07-16T03:15:59.563Z,99134.59
2018-07-16T03:16:30.741Z,99140.28
2018-07-16T03:17:01.912Z,99135.92
2018-07-16T03:17:33.081Z,99140.86
2018-07-16T03:18:04.414Z,99133.27
2018-07-16T03:18:35.557Z,99137.47
2018-07-16T03:19:06.806Z,99133.41
2018-07-16T03:19:39.009Z,99132.35
2018-07-16T03:20:10.191Z,99113.96
2018-07-16T03:20:41.378Z,99125.23
2018-07-16T03:21:12.553Z,99131.34
2018-07-16T03:21:43.825Z,99124.37
2018-07-16T03:22:15.064Z,99130.28
2018-07-16T03:22:46.293Z,99126.32
2018-07-16T03:23:17.482Z,99132.08
2018-07-16T03:23:48.708Z,99130.67
2018-07-16T03:24:19.916Z,99129.16
2018-07-16T03:24:51.712Z,99135.28
2018-07-16T03:25:22.988Z,99124.57
2018-07-16T03:25:54.222Z,99133.61
2018-07-16T03:26:25.926Z,99133.00
2018-07-16T03:26:57.145Z,99140.09
2018-07-16T03:27:28.329Z,99132.80
2018-07-16T03:27:59.513Z,99133.91
2018-07-16T03:28:30.781Z,99125.28
2018-07-16T03:29:02.025Z,99131.86
2018-07-16T03:29:33.263Z,99133.83
2018-07-16T03:30:05.129Z,99138.04
2018-07-16T03:30:36.326Z,99134.91
2018-07-16T03:31:07.496Z,99131.05
2018-07-16T03:31:38.692Z,99134.19
2018-07-16T03:32:10.688Z,99134.04
2018-07-16T03:32:41.909Z,99130.70
2018-07-16T03:33:13.103Z,99135.11
2018-07-16T03:33:44.283Z,99132.92
2018-07-16T03:34:16.603Z,99135.59
2018-07-16T03:34:47.839Z,99135.69
2018-07-16T03:35:19.021Z,99131.44
2018-07-16T03:35:50.200Z,99125.48
2018-07-16T03:36:21.376Z,99131.85
2018-07-16T03:36:52.613Z,99135.53
2018-07-16T03:37:23.897Z,99139.86
2018-07-16T03:37:55.084Z,99132.09
2018-07-16T03:38:26.260Z,99132.56
2018-07-16T03:38:57.492Z,99126.81
2018-07-16T03:39:28.701Z,99133.18
2018-07-16T03:39:59.946Z,99130.68
2018-07-16T03:40:31.189Z,99139.81
2018-07-16T03:41:02.372Z,99141.47
2018-07-16T03:41:33.554Z,99137.46
2018-07-16T03:42:04.744Z,99137.34
2018-07-16T03:42:35.933Z,99140.69
2018-07-16T03:43:07.167Z,99139.28
2018-07-16T03:43:38.351Z,99139.19
2018-07-16T03:44:09.521Z,99139.06
2018-07-16T03:44:40.765Z,99140.80
2018-07-16T03:45:12.070Z,99142.61
2018-07-16T03:45:43.321Z,99141.63
2018-07-16T03:46:14.562Z,99145.84
2018-07-16T03:46:45.797Z,99145.81
2018-07-16T03:47:17.098Z,99145.59
2018-07-16T03:47:48.334Z,99148.66
2018-07-16T03:49:10.606Z,99149.14
2018-07-16T03:49:41.861Z,99152.31
2018-07-16T03:50:13.155Z,99147.72
2018-07-16T03:50:44.336Z,99146.34
2018-07-16T03:51:15.626Z,99148.12
2018-07-16T03:51:46.811Z,99145.56
2018-07-16T03:52:18.041Z,99149.41
2018-07-16T03:52:49.236Z,99152.52
2018-07-16T03:53:20.423Z,99150.08
2018-07-16T03:53:51.620Z,99149.22
2018-07-16T03:54:22.805Z,99148.67
2018-07-16T03:54:54.004Z,99145.75
2018-07-16T03:55:25.177Z,99142.13
2018-07-16T03:55:56.459Z,99139.61
2018-07-16T03:56:27.698Z,99145.79
2018-07-16T03:56:58.880Z,99143.78
2018-07-16T03:57:30.107Z,99148.53
2018-07-16T03:58:01.346Z,99140.45
2018-07-16T03:58:32.528Z,99137.38
2018-07-16T03:59:03.719Z,99139.63
2018-07-16T03:59:34.975Z,99146.94
2018-07-16T04:00:06.200Z,99146.90
2018-07-16T04:00:37.429Z,99146.16
2018-07-16T04:01:08.665Z,99145.60
2018-07-16T04:01:40.137Z,99146.98
2018-07-16T04:02:11.245Z,99144.34
2018-07-16T04:02:42.424Z,99139.51
2018-07-16T04:03:13.612Z,99139.39
2018-07-16T04:03:44.855Z,99147.29
2018-07-16T04:04:16.043Z,99142.26
2018-07-16T04:04:47.335Z,99146.42
2018-07-16T04:05:18.540Z,99146.73
2018-07-16T04:05:49.716Z,99142.81
2018-07-16T04:06:20.884Z,99143.70
2018-07-16T04:06:52.169Z,99135.66
2018-07-16T04:07:23.356Z,99138.67
2018-07-16T04:07:54.628Z,99136.00
2018-07-16T04:08:25.887Z,99137.84
2018-07-16T04:08:57.152Z,99127.59
2018-07-16T04:09:28.337Z,99141.48
2018-07-16T04:09:59.598Z,99138.47
2018-07-16T04:10:30.772Z,99139.02
2018-07-16T04:11:02.030Z,99142.02
2018-07-16T04:11:33.728Z,99136.70
2018-07-16T04:12:04.910Z,99142.63
2018-07-16T04:12:36.141Z,99140.28
2018-07-16T04:13:07.429Z,99137.90
2018-07-16T04:13:38.658Z,99137.84
2018-07-16T04:14:09.848Z,99138.67
2018-07-16T04:14:41.068Z,99133.55
2018-07-16T04:15:12.961Z,99137.00
2018-07-16T04:15:44.208Z,99144.68
2018-07-16T04:16:15.395Z,99143.12
2018-07-16T04:16:46.657Z,99138.88
2018-07-16T04:17:17.905Z,99143.87
2018-07-16T04:17:49.093Z,99146.27
2018-07-16T04:18:20.320Z,99145.03
2018-07-16T04:18:51.562Z,99137.83
2018-07-16T04:19:23.777Z,99140.89
2018-07-16T04:19:54.973Z,99139.27
2018-07-16T04:20:26.159Z,99137.70
2018-07-16T04:20:57.388Z,99137.44
2018-07-16T04:21:28.580Z,99137.75
2018-07-16T04:21:59.756Z,99139.30
2018-07-16T04:22:31.189Z,99136.42
2018-07-16T04:23:02.375Z,99140.59
2018-07-16T04:23:33.561Z,99131.22
2018-07-16T04:24:04.729Z,99140.88
2018-07-16T04:24:36.049Z,99141.56
2018-07-16T04:25:07.240Z,99143.39
2018-07-16T04:25:38.414Z,99138.88
2018-07-16T04:26:09.593Z,99136.20
2018-07-16T04:26:40.788Z,99134.47
2018-07-16T04:27:12.049Z,99139.70
2018-07-16T04:27:43.279Z,99131.16
2018-07-16T04:28:14.457Z,99135.18
2018-07-16T04:28:45.718Z,99136.62
2018-07-16T04:29:16.957Z,99133.66
2018-07-16T04:29:49.215Z,99134.57
2018-07-16T04:30:20.384Z,99134.35
2018-07-16T04:30:51.578Z,99141.63
2018-07-16T04:31:22.800Z,99133.62
2018-07-16T04:31:53.984Z,99138.13
2018-07-16T04:32:25.170Z,99134.41
2018-07-16T04:32:56.407Z,99135.23
2018-07-16T04:33:27.597Z,99137.41
2018-07-16T04:33:58.780Z,99132.64
2018-07-16T04:34:30.660Z,99129.92
2018-07-16T04:35:01.897Z,99129.41
2018-07-16T04:35:33.086Z,99130.27
2018-07-16T04:36:04.309Z,99127.66
2018-07-16T04:36:35.542Z,99136.12
2018-07-16T04:37:06.724Z,99134.92
2018-07-16T04:37:37.980Z,99134.02
2018-07-16T04:38:09.160Z,99134.67
2018-07-16T04:38:40.397Z,99135.11
2018-07-16T04:39:11.626Z,99132.23
2018-07-16T04:39:42.826Z,99126.05
2018-07-16T04:40:14.052Z,99136.44
2018-07-16T04:40:45.281Z,99132.39
2018-07-16T04:41:16.473Z,99132.19
2018-07-16T04:41:47.653Z,99133.27
2018-07-16T04:42:18.840Z,99129.95
2018-07-16T04:42:51.151Z,99138.56
2018-07-16T04:43:22.393Z,99133.26
2018-07-16T04:43:53.582Z,99133.41
2018-07-16T04:44:24.827Z,99125.53
2018-07-16T04:44:56.027Z,99127.32
2018-07-16T04:45:27.225Z,99131.08
2018-07-16T04:45:58.402Z,99126.73
2018-07-16T04:46:29.572Z,99131.93
2018-07-16T04:47:00.767Z,99131.80
2018-07-16T04:47:31.951Z,99129.28
2018-07-16T04:48:03.189Z,99126.25
2018-07-16T04:48:34.401Z,99123.59
2018-07-16T04:49:05.593Z,99123.11
2018-07-16T04:49:36.772Z,99134.97
2018-07-16T04:50:07.956Z,99128.77
2018-07-16T04:50:39.182Z,99127.12
2018-07-16T04:51:10.368Z,99126.66
2018-07-16T04:51:41.557Z,99129.63
2018-07-16T04:52:12.793Z,99131.73
2018-07-16T04:52:43.972Z,99122.80
2018-07-16T04:53:15.153Z,99131.80
2018-07-16T04:53:46.334Z,99135.33
2018-07-16T04:54:18.244Z,99137.42
2018-07-16T04:54:49.426Z,99129.97
2018-07-16T04:55:20.653Z,99130.80
2018-07-16T04:55:51.842Z,99133.77
2018-07-16T04:56:23.017Z,99124.65
2018-07-16T04:56:55.042Z,99130.97
2018-07-16T04:57:26.235Z,99128.70
2018-07-16T04:57:57.420Z,99142.32
2018-07-16T04:58:28.597Z,99141.32
2018-07-16T04:58:59.772Z,99130.90
2018-07-16T04:59:31.045Z,99133.07
2018-07-16T05:00:02.288Z,99125.21
2018-07-16T05:00:33.525Z,99128.39
2018-07-16T05:01:05.401Z,99128.64
2018-07-16T05:01:36.590Z,99127.49
2018-07-16T05:02:07.837Z,99122.08
2018-07-16T05:02:39.075Z,99130.88
2018-07-16T05:03:10.349Z,99126.23
2018-07-16T05:03:41.589Z,99123.55
2018-07-16T05:04:12.781Z,99128.61
2018-07-16T05:04:43.971Z,99137.37
2018-07-16T05:05:15.152Z,99127.06
2018-07-16T05:05:46.405Z,99129.45
2018-07-16T05:06:18.830Z,99129.17
2018-07-16T05:06:50.013Z,99126.33
2018-07-16T05:07:21.250Z,99124.23
2018-07-16T05:07:52.412Z,99133.63
2018-07-16T05:08:23.640Z,99137.98
2018-07-16T05:08:54.860Z,99140.34
2018-07-16T05:09:26.041Z,99138.48
2018-07-16T05:09:57.236Z,99142.67
2018-07-16T05:10:28.555Z,99136.31
2018-07-16T05:10:59.736Z,99140.00
2018-07-16T05:11:31.515Z,99140.18
2018-07-16T05:12:02.785Z,99137.17
2018-07-16T05:12:34.021Z,99125.22
2018-07-16T05:13:05.209Z,99135.95
2018-07-16T05:13:36.389Z,99141.98
2018-07-16T05:14:07.777Z,99141.00
2018-07-16T05:14:39.033Z,99138.50
2018-07-16T05:15:10.275Z,99134.30
2018-07-16T05:15:41.553Z,99136.61
2018-07-16T05:16:12.743Z,99137.66
2018-07-16T05:16:43.984Z,99142.37
2018-07-16T05:17:15.308Z,99140.69
2018-07-16T05:17:47.248Z,99131.25
2018-07-16T05:18:18.510Z,99143.95
2018-07-16T05:18:49.653Z,99138.63
2018-07-16T05:19:20.877Z,99137.95
2018-07-16T05:19:52.128Z,99149.71
2018-07-16T05:20:23.321Z,99143.95
2018-07-16T05:20:54.540Z,99147.65
2018-07-16T05:21:25.708Z,99139.92
2018-07-16T05:21:56.872Z,99140.91
2018-07-16T05:22:28.045Z,99135.89
2018-07-16T05:22:59.274Z,99138.92
2018-07-16T05:23:30.460Z,99139.73
2018-07-16T05:24:01.641Z,99143.44
2018-07-16T05:24:32.907Z,99130.33
2018-07-16T05:25:04.087Z,99140.92
2018-07-16T05:25:35.252Z,99143.94
2018-07-16T05:26:06.460Z,99145.28
2018-07-16T05:26:37.689Z,99142.23
2018-07-16T05:27:08.921Z,99141.48
2018-07-16T05:27:40.110Z,99144.17
2018-07-16T05:28:11.312Z,99148.52
2018-07-16T05:28:42.488Z,99138.80
2018-07-16T05:29:13.700Z,99140.99
2018-07-16T05:29:44.931Z,99145.73
2018-07-16T05:30:16.120Z,99139.70
2018-07-16T05:30:47.308Z,99146.72
2018-07-16T05:31:18.492Z,99142.98
2018-07-16T05:31:50.063Z,99143.78
2018-07-16T05:32:21.322Z,99145.78
2018-07-16T05:32:52.438Z,99147.73
2018-07-16T05:33:23.613Z,99143.55
2018-07-16T05:33:54.788Z,99145.28
2018-07-16T05:34:25.970Z,99137.20
2018-07-16T05:34:57.184Z,99139.64
2018-07-16T05:35:28.400Z,99147.05
2018-07-16T05:35:59.576Z,99142.35
2018-07-16T05:36:30.845Z,99133.28
2018-07-16T05:37:02.076Z,99140.34
2018-07-16T05:37:33.315Z,99139.34
2018-07-16T05:38:04.532Z,99144.37
2018-07-16T05:38:35.749Z,99140.31
2018-07-16T05:39:07.069Z,99143.18
2018-07-16T05:39:38.282Z,99139.66
2018-07-16T05:40:09.505Z,99151.75
2018-07-16T05:40:40.703Z,99144.03
2018-07-16T05:41:11.884Z,99142.33
2018-07-16T05:41:43.123Z,99142.47
2018-07-16T05:42:14.331Z,99139.75
2018-07-16T05:42:45.588Z,99146.32
2018-07-16T05:43:16.761Z,99145.66
2018-07-16T05:43:47.976Z,99143.69
2018-07-16T05:44:19.154Z,99143.84
2018-07-16T05:44:50.339Z,99143.02
2018-07-16T05:45:21.520Z,99144.38
2018-07-16T05:45:52.743Z,99148.23
2018-07-16T05:46:23.927Z,99141.01
2018-07-16T05:46:55.154Z,99142.52
2018-07-16T05:47:26.336Z,99137.92
2018-07-16T05:47:57.557Z,99142.93
2018-07-16T05:48:28.751Z,99136.67
2018-07-16T05:49:00.026Z,99137.84
2018-07-16T05:49:31.253Z,99140.00
2018-07-16T05:50:02.426Z,99142.78
2018-07-16T05:50:33.607Z,99145.28
2018-07-16T05:51:04.788Z,99143.08
2018-07-16T05:51:40.772Z,99141.22
2018-07-16T05:52:12.015Z,99137.84
2018-07-16T05:52:43.204Z,99141.84
2018-07-16T05:53:14.379Z,99147.51
2018-07-16T05:53:45.587Z,99145.23
2018-07-16T05:54:16.797Z,99145.02
2018-07-16T05:54:48.005Z,99146.23
2018-07-16T05:55:19.232Z,99147.21
2018-07-16T05:55:50.642Z,99132.58
2018-07-16T05:56:21.869Z,99143.66
2018-07-16T05:56:53.055Z,99141.09
2018-07-16T05:57:24.322Z,99142.97
2018-07-16T05:57:55.562Z,99144.41
2018-07-16T05:58:26.814Z,99137.72
2018-07-16T05:58:58.101Z,99144.12
2018-07-16T05:59:29.353Z,99148.15
2018-07-16T06:00:00.621Z,99146.28
2018-07-16T06:00:31.812Z,99147.21
2018-07-16T06:01:02.993Z,99144.81
2018-07-16T06:01:35.555Z,99153.04
2018-07-16T06:02:06.750Z,99154.20
2018-07-16T06:02:37.958Z,99147.50
2018-07-16T06:03:13.206Z,99146.05
2018-07-16T06:03:44.442Z,99143.02
2018-07-16T06:04:15.630Z,99137.67
2018-07-16T06:04:47.086Z,99136.71
2018-07-16T06:05:18.464Z,99140.44
2018-07-16T06:05:49.664Z,99139.11
2018-07-16T06:06:20.848Z,99141.17
2018-07-16T06:06:52.047Z,99140.35
2018-07-16T06:07:23.245Z,99131.69
2018-07-16T06:07:54.440Z,99142.08
2018-07-16T06:08:25.713Z,99142.93
2018-07-16T06:08:56.944Z,99146.95
2018-07-16T06:09:28.179Z,99142.41
2018-07-16T06:09:59.385Z,99147.61
2018-07-16T06:10:30.594Z,99147.78
2018-07-16T06:11:01.818Z,99144.55
2018-07-16T06:11:33.025Z,99143.12